Time;durP1;ratioP1;P1;durP2;ratioP2;P2;SDS_P1;SDS_P2;PMS_P1;PMS_P2;Temp;Humidity;BMP_temperature;BMP_pressure;BME280_temperature;BME280_humidity;BME280_pressure;Samples;Min_cycle;Max_cycle;Signal;HPM_P1;HPM_P2
2022/08/19 00:01:40;;;;;;;2.47;1.17;;;24.40;61.00;;;;;;4540093;31;20120;-66
2022/08/19 00:04:10;;;;;;;5.15;1.13;;;24.40;61.00;;;;;;4539891;31;20213;-67
2022/08/19 00:06:37;;;;;;;3.33;0.98;;;24.30;61.00;;;;;;4538848;31;20418;-67
2022/08/19 00:09:05;;;;;;;1.25;0.90;;;24.30;61.00;;;;;;4539836;31;20064;-67
2022/08/19 00:11:31;;;;;;;1.98;1.00;;;24.40;61.00;;;;;;4539627;31;20870;-67
2022/08/19 00:14:00;;;;;;;4.13;1.08;;;24.30;61.00;;;;;;4539913;31;20087;-67
2022/08/19 00:16:26;;;;;;;1.02;0.85;;;24.30;61.00;;;;;;4539665;31;20082;-66
2022/08/19 00:18:53;;;;;;;3.65;1.08;;;24.30;61.00;;;;;;4539576;31;20068;-67
2022/08/19 00:21:18;;;;;;;1.42;0.80;;;24.30;61.00;;;;;;4539565;31;20090;-67
2022/08/19 00:23:44;;;;;;;1.92;1.00;;;24.30;61.00;;;;;;4539532;31;20115;-66
2022/08/19 00:26:11;;;;;;;2.35;0.93;;;24.30;61.00;;;;;;4539753;31;20478;-67
2022/08/19 00:28:37;;;;;;;1.85;0.98;;;24.30;61.00;;;;;;4539521;31;20193;-67
2022/08/19 00:31:05;;;;;;;2.25;0.90;;;24.30;61.00;;;;;;4539564;31;20267;-66
2022/08/19 00:33:32;;;;;;;2.17;1.10;;;24.30;61.00;;;;;;4539500;31;20110;-67
2022/08/19 00:36:04;;;;;;;1.90;0.90;;;24.30;61.00;;;;;;4539324;31;20169;-67
2022/08/19 00:38:39;;;;;;;1.85;1.00;;;24.30;61.00;;;;;;4539825;31;20119;-67
2022/08/19 00:41:05;;;;;;;2.40;1.15;;;24.30;61.00;;;;;;4525801;31;20119;-67
2022/08/19 00:43:31;;;;;;;2.20;1.00;;;24.30;61.00;;;;;;4539333;31;20091;-67
2022/08/19 00:45:59;;;;;;;2.83;0.98;;;24.30;61.00;;;;;;4524781;31;20087;-66
2022/08/19 00:48:25;;;;;;;2.75;1.00;;;24.20;60.90;;;;;;4539245;31;20215;-67
2022/08/19 00:50:52;;;;;;;2.60;0.90;;;24.20;61.00;;;;;;4539299;31;20076;-66
2022/08/19 00:53:22;;;;;;;1.50;0.75;;;24.20;61.00;;;;;;4539276;31;20068;-67
2022/08/19 00:55:52;;;;;;;1.83;0.80;;;24.20;61.00;;;;;;4524765;31;20068;-67
2022/08/19 00:58:21;;;;;;;2.78;1.15;;;24.20;61.00;;;;;;4539287;31;20072;-66
2022/08/19 01:00:47;;;;;;;1.52;0.80;;;24.20;61.00;;;;;;4538191;31;20214;-68
2022/08/19 01:03:17;;;;;;;3.08;0.75;;;24.20;61.00;;;;;;4535728;31;20064;-67
2022/08/19 01:05:44;;;;;;;4.22;0.98;;;24.20;61.00;;;;;;4537008;31;20056;-66
2022/08/19 01:08:10;;;;;;;2.85;1.10;;;24.20;61.00;;;;;;4535866;31;20080;-68
2022/08/19 01:10:43;;;;;;;1.52;0.80;;;24.20;61.00;;;;;;4535682;31;20412;-69
2022/08/19 01:13:09;;;;;;;1.85;0.88;;;24.20;60.90;;;;;;4538401;31;20076;-66
2022/08/19 01:15:47;;;;;;;1.45;0.60;;;24.20;61.00;;;;;;4536660;31;20168;-67
2022/08/19 01:18:16;;;;;;;2.47;0.98;;;24.20;60.90;;;;;;4539091;31;20068;-67
2022/08/19 01:20:42;;;;;;;1.55;0.95;;;24.20;60.90;;;;;;4541209;31;20279;-67
2022/08/19 01:23:08;;;;;;;2.03;0.80;;;24.20;61.00;;;;;;4541297;31;20072;-66
2022/08/19 01:25:49;;;;;;;1.70;0.90;;;24.20;61.00;;;;;;4538733;31;20201;-70
2022/08/19 01:28:27;;;;;;;1.75;0.77;;;24.20;61.00;;;;;;4540886;31;20096;-67
2022/08/19 01:30:54;;;;;;;1.60;1.10;;;24.20;60.90;;;;;;4540247;31;20076;-67
2022/08/19 01:33:21;;;;;;;1.40;0.70;;;24.20;61.00;;;;;;4541311;31;20112;-67
2022/08/19 01:35:51;;;;;;;3.90;1.10;;;24.20;61.00;;;;;;4541380;31;20089;-67
2022/08/19 01:38:23;;;;;;;2.90;1.17;;;24.20;60.90;;;;;;4539580;31;20115;-67
2022/08/19 01:40:50;;;;;;;;;;;24.10;61.00;;;;;;4538980;31;20087;-67
2022/08/19 01:43:18;;;;;;;1.20;0.80;;;24.10;61.00;;;;;;4539928;31;20012;-67
2022/08/19 01:45:46;;;;;;;2.33;0.90;;;24.10;61.00;;;;;;4539263;31;20162;-67
2022/08/19 01:48:13;;;;;;;0.95;0.60;;;24.10;61.00;;;;;;4540879;31;20064;-67
2022/08/19 01:50:39;;;;;;;1.65;0.80;;;24.10;61.00;;;;;;4527327;31;20075;-67
2022/08/19 01:53:09;;;;;;;2.25;0.85;;;24.10;61.00;;;;;;4513377;31;20386;-72
2022/08/19 01:55:39;;;;;;;2.55;0.95;;;24.10;61.00;;;;;;4525740;31;20142;-69
2022/08/19 01:58:07;;;;;;;1.27;0.70;;;24.10;61.00;;;;;;4538997;31;20112;-67
2022/08/19 02:00:33;;;;;;;1.00;0.80;;;24.10;61.00;;;;;;4539941;31;20270;-67
2022/08/19 02:03:00;;;;;;;1.05;0.68;;;24.10;61.10;;;;;;4512689;31;20126;-67
2022/08/19 02:05:28;;;;;;;1.10;0.80;;;24.10;61.00;;;;;;4538349;31;20214;-67
2022/08/19 02:07:56;;;;;;;2.40;0.65;;;24.10;61.00;;;;;;4524197;31;20126;-67
2022/08/19 02:10:28;;;;;;;1.13;0.70;;;24.10;61.10;;;;;;4539594;31;20520;-67
2022/08/19 02:12:54;;;;;;;1.85;0.90;;;24.10;61.00;;;;;;4536417;31;20072;-66
2022/08/19 02:15:21;;;;;;;2.63;0.70;;;24.10;61.10;;;;;;4535392;31;20099;-67
2022/08/19 02:17:48;;;;;;;0.95;0.60;;;24.10;61.10;;;;;;4539537;31;20131;-67
2022/08/19 02:20:15;;;;;;;1.45;0.82;;;24.00;60.90;;;;;;4538863;31;20139;-67
2022/08/19 02:22:42;;;;;;;1.23;0.77;;;24.00;61.00;;;;;;4539279;31;20221;-67
2022/08/19 02:25:13;;;;;;;1.73;0.80;;;24.10;61.10;;;;;;4540036;31;20068;-66
2022/08/19 02:27:40;;;;;;;1.75;0.90;;;24.00;61.00;;;;;;4539447;31;20101;-67
2022/08/19 02:30:09;;;;;;;1.15;0.77;;;24.00;61.90;;;;;;4512523;31;20341;-66
2022/08/19 02:32:35;;;;;;;1.40;0.75;;;24.00;61.00;;;;;;4539905;31;20155;-66
2022/08/19 02:35:01;;;;;;;1.20;1.00;;;24.00;61.00;;;;;;4540778;31;20072;-67
2022/08/19 02:40:17;;;;;;;1.48;0.75;;;24.00;61.00;;;;;;4538916;31;20095;-70
2022/08/19 02:42:45;;;;;;;0.85;0.60;;;24.00;61.00;;;;;;4535724;31;20084;-67
2022/08/19 02:45:13;;;;;;;1.40;0.80;;;24.00;61.00;;;;;;4538096;31;20211;-66
2022/08/19 02:47:40;;;;;;;2.42;0.70;;;24.00;61.00;;;;;;4534790;31;20497;-67
2022/08/19 02:50:07;;;;;;;1.15;0.80;;;24.00;61.00;;;;;;4539718;31;20147;-74
2022/08/19 02:52:34;;;;;;;0.80;0.60;;;24.00;61.00;;;;;;4539054;31;20160;-67
2022/08/19 02:55:00;;;;;;;0.57;0.45;;;24.00;61.00;;;;;;4540054;31;20509;-67
2022/08/19 02:57:26;;;;;;;0.93;0.80;;;24.00;61.00;;;;;;4539447;31;20166;-71
2022/08/19 02:59:53;;;;;;;1.08;0.68;;;24.00;61.00;;;;;;4537320;31;20079;-66
2022/08/19 03:02:19;;;;;;;1.83;0.90;;;24.00;61.00;;;;;;4539201;31;20496;-66
2022/08/19 03:04:45;;;;;;;1.38;0.73;;;24.00;60.90;;;;;;4538277;31;20112;-66
2022/08/19 03:07:16;;;;;;;0.70;0.68;;;24.00;61.00;;;;;;4539635;31;20075;-67
2022/08/19 03:09:42;;;;;;;1.30;0.85;;;24.00;61.00;;;;;;4539609;31;20123;-67
2022/08/19 03:12:09;;;;;;;2.65;0.88;;;24.00;61.00;;;;;;4538128;31;20068;-67
2022/08/19 03:14:35;;;;;;;0.73;0.50;;;24.00;61.00;;;;;;4537223;31;20119;-67
2022/08/19 03:17:03;;;;;;;0.80;0.60;;;24.00;61.00;;;;;;4525639;31;20072;-66
2022/08/19 03:19:28;;;;;;;1.40;0.80;;;24.00;61.00;;;;;;4538674;31;20094;-66
2022/08/19 03:21:55;;;;;;;1.27;0.70;;;23.90;61.00;;;;;;4535966;31;20088;-66
2022/08/19 03:24:21;;;;;;;1.88;0.65;;;23.90;61.00;;;;;;4539739;31;20156;-66
2022/08/19 03:26:55;;;;;;;1.08;0.60;;;23.90;61.00;;;;;;4540085;31;20068;-67
2022/08/19 03:29:21;;;;;;;1.38;0.60;;;23.90;61.00;;;;;;4540801;31;20172;-66
2022/08/19 03:31:46;;;;;;;1.98;0.68;;;23.90;61.00;;;;;;4525762;31;20127;-67
2022/08/19 03:34:34;;;;;;;1.33;0.57;;;23.90;61.00;;;;;;4526088;31;20072;-67
2022/08/19 03:37:07;;;;;;;0.82;0.63;;;23.90;61.00;;;;;;4539882;31;20067;-67
2022/08/19 03:39:35;;;;;;;0.85;0.60;;;23.90;61.00;;;;;;4539859;31;20213;-66
2022/08/19 03:42:02;;;;;;;1.52;0.65;;;23.90;61.00;;;;;;4533760;31;20400;-67
2022/08/19 03:44:32;;;;;;;0.93;0.70;;;23.90;61.00;;;;;;4524564;31;20072;-67
2022/08/19 03:46:59;;;;;;;1.05;0.68;;;23.90;61.00;;;;;;4536788;31;20091;-67
2022/08/19 03:49:28;;;;;;;0.70;0.60;;;23.90;61.00;;;;;;4537045;31;20159;-73
2022/08/19 03:51:55;;;;;;;1.10;0.70;;;23.90;61.90;;;;;;4538181;31;20537;-66
2022/08/19 03:54:23;;;;;;;0.90;0.50;;;23.80;61.00;;;;;;4527801;31;20096;-67
2022/08/19 03:56:51;;;;;;;1.02;0.60;;;23.80;61.00;;;;;;4529495;31;20152;-66
2022/08/19 03:59:32;;;;;;;0.73;0.70;;;23.80;60.90;;;;;;4528894;31;20057;-67
2022/08/19 04:02:11;;;;;;;0.70;0.50;;;23.80;60.90;;;;;;4530422;31;20080;-67
2022/08/19 04:04:42;;;;;;;0.93;0.80;;;23.80;61.00;;;;;;4535133;31;20136;-67
2022/08/19 04:07:09;;;;;;;0.65;0.60;;;23.80;60.90;;;;;;4530281;31;20072;-66
2022/08/19 04:09:36;;;;;;;0.80;0.57;;;23.80;61.00;;;;;;4528041;31;20136;-67
2022/08/19 04:12:05;;;;;;;0.98;0.60;;;23.80;61.00;;;;;;4528778;31;20206;-66
2022/08/19 04:14:31;;;;;;;1.33;0.55;;;23.80;61.00;;;;;;4529095;31;20087;-67
2022/08/19 04:17:00;;;;;;;1.73;0.68;;;23.80;61.00;;;;;;4527418;31;20088;-66
2022/08/19 04:19:28;;;;;;;1.08;0.77;;;23.80;60.90;;;;;;4530062;31;20080;-66
2022/08/19 04:21:54;;;;;;;1.60;0.63;;;23.80;61.00;;;;;;4534151;31;20535;-66
2022/08/19 04:24:21;;;;;;;1.65;0.60;;;23.80;61.00;;;;;;4536288;31;20505;-66
2022/08/19 04:26:48;;;;;;;1.00;0.55;;;23.80;60.90;;;;;;4539345;31;20101;-67
2022/08/19 04:29:21;;;;;;;1.00;0.80;;;23.80;61.00;;;;;;4539642;31;20204;-66
2022/08/19 04:31:49;;;;;;;0.60;0.50;;;23.80;61.00;;;;;;4539570;31;20382;-66
2022/08/19 04:34:17;;;;;;;1.55;0.40;;;23.80;60.90;;;;;;4539705;31;20072;-67
2022/08/19 04:36:44;;;;;;;0.80;0.60;;;23.80;61.00;;;;;;4539440;31;20535;-67
2022/08/19 04:42:38;;;;;;;0.95;0.50;;;23.80;61.00;;;;;;4539519;31;20063;-66
2022/08/19 04:44:59;;;;;;;1.02;0.70;;;23.70;61.00;;;;;;4539322;31;20115;-66
2022/08/19 04:47:24;;;;;;;0.90;0.65;;;23.80;61.00;;;;;;4539241;31;20221;-66
2022/08/19 04:49:51;;;;;;;1.33;0.80;;;23.70;61.00;;;;;;4539263;31;20053;-66
2022/08/19 04:52:16;;;;;;;1.00;0.55;;;23.70;61.00;;;;;;4524472;31;20075;-66
2022/08/19 04:54:42;;;;;;;0.63;0.63;;;23.70;60.90;;;;;;4539269;31;20206;-66
2022/08/19 04:57:09;;;;;;;1.50;0.45;;;23.70;60.90;;;;;;4539257;31;20496;-66
2022/08/19 04:59:39;;;;;;;0.68;0.40;;;23.70;60.90;;;;;;4539308;31;20108;-66
2022/08/19 05:02:07;;;;;;;0.75;0.55;;;23.70;60.90;;;;;;4539333;31;20111;-66
2022/08/19 05:04:33;;;;;;;0.77;0.50;;;23.70;60.90;;;;;;4539147;31;20087;-67
2022/08/19 05:07:02;;;;;;;0.88;0.57;;;23.70;61.00;;;;;;4539285;31;20202;-66
2022/08/19 05:09:29;;;;;;;0.90;0.52;;;23.70;60.90;;;;;;4539099;31;20064;-67
2022/08/19 05:11:55;;;;;;;1.02;0.57;;;23.70;60.90;;;;;;4539340;31;20064;-66
2022/08/19 05:14:21;;;;;;;1.75;0.82;;;23.70;60.90;;;;;;4539150;31;20072;-66
2022/08/19 05:16:47;;;;;;;1.45;0.63;;;23.70;60.90;;;;;;4524827;31;20210;-66
2022/08/19 05:24:44;;;;;;;1.20;0.68;;;23.70;61.00;;;;;;4539062;31;20642;-66
2022/08/19 05:27:10;;;;;;;1.52;0.50;;;23.60;60.90;;;;;;4538965;31;20068;-66
2022/08/19 05:29:36;;;;;;;0.73;0.50;;;23.70;61.00;;;;;;4539177;31;20075;-67
2022/08/19 05:32:09;;;;;;;1.00;0.60;;;23.70;61.00;;;;;;4538948;31;20208;-66
2022/08/19 05:34:35;;;;;;;1.30;0.60;;;23.70;61.00;;;;;;4539176;31;20094;-67
2022/08/19 05:37:02;;;;;;;0.82;0.50;;;23.60;60.90;;;;;;4538943;31;20140;-66
2022/08/19 05:39:32;;;;;;;1.05;0.75;;;23.60;60.90;;;;;;4539145;31;20076;-66
2022/08/19 05:42:06;;;;;;;0.50;0.50;;;23.60;61.00;;;;;;4538816;31;20068;-66
2022/08/19 05:44:36;;;;;;;0.47;0.47;;;23.60;61.00;;;;;;4538970;31;20115;-71
2022/08/19 05:47:05;;;;;;;1.20;0.40;;;23.60;61.00;;;;;;4539035;31;20095;-66
2022/08/19 05:49:32;;;;;;;0.60;0.50;;;23.60;61.90;;;;;;4538719;31;20567;-66
2022/08/19 05:52:01;;;;;;;0.70;0.50;;;23.60;61.10;;;;;;4539112;31;20076;-67
2022/08/19 05:54:27;;;;;;;0.70;0.50;;;23.60;61.10;;;;;;4528044;31;20067;-66
2022/08/19 05:56:53;;;;;;;0.80;0.70;;;23.60;61.10;;;;;;4538939;31;20470;-66
2022/08/19 05:59:21;;;;;;;0.90;0.45;;;23.60;61.10;;;;;;4538760;31;20518;-66
2022/08/19 06:01:51;;;;;;;0.77;0.52;;;23.60;61.10;;;;;;4530001;31;20076;-66
2022/08/19 06:04:19;;;;;;;0.90;0.60;;;23.60;61.10;;;;;;4526114;31;20081;-66
2022/08/19 06:06:47;;;;;;;0.60;0.40;;;23.60;61.10;;;;;;4526790;31;20259;-66
2022/08/19 06:09:13;;;;;;;0.55;0.50;;;23.70;61.20;;;;;;4527544;31;20072;-66
2022/08/19 06:11:43;;;;;;;0.70;0.43;;;23.70;61.20;;;;;;4526622;31;20076;-66
2022/08/19 06:14:19;;;;;;;0.73;0.63;;;23.70;61.20;;;;;;4537776;31;20060;-66
2022/08/19 06:16:45;;;;;;;0.60;0.52;;;23.70;61.20;;;;;;4527354;31;20475;-65
2022/08/19 06:19:17;;;;;;;1.58;1.05;;;23.70;61.20;;;;;;4526275;31;20098;-66
2022/08/19 06:21:46;;;;;;;2.22;1.50;;;23.70;61.20;;;;;;4538050;31;20079;-65
2022/08/19 06:24:14;;;;;;;5.15;2.22;;;23.70;61.10;;;;;;4539704;31;20114;-66
2022/08/19 06:26:43;;;;;;;4.43;2.22;;;23.80;61.10;;;;;;4541185;31;20064;-65
2022/08/19 06:29:11;;;;;;;2.83;2.15;;;23.80;61.20;;;;;;4541514;31;20084;-65
2022/08/19 06:31:40;;;;;;;4.35;2.42;;;23.80;61.40;;;;;;4541247;31;20088;-66
2022/08/19 06:34:06;;;;;;;3.50;2.45;;;23.80;61.50;;;;;;4541442;31;20102;-65
2022/08/19 06:36:40;;;;;;;5.45;3.30;;;23.80;61.70;;;;;;4541209;31;20505;-65
2022/08/19 06:39:12;;;;;;;8.95;3.75;;;23.80;61.90;;;;;;4541709;31;20115;-65
2022/08/19 06:41:42;;;;;;;4.95;3.28;;;23.80;62.10;;;;;;4541298;31;20224;-65
2022/08/19 06:44:09;;;;;;;9.70;3.60;;;23.80;62.20;;;;;;4540872;31;20512;-65
2022/08/19 06:46:36;;;;;;;5.47;3.60;;;23.80;62.30;;;;;;4526627;31;20480;-66
2022/08/19 06:49:04;;;;;;;4.53;2.88;;;23.80;62.40;;;;;;4540700;31;20099;-65
2022/08/19 06:51:32;;;;;;;6.00;3.10;;;23.80;62.50;;;;;;4541224;31;20087;-65
2022/08/19 06:53:58;;;;;;;5.90;3.88;;;23.80;62.50;;;;;;4540967;31;20082;-65
2022/08/19 06:56:33;;;;;;;3.92;3.30;;;23.80;62.90;;;;;;4541050;31;20072;-65
2022/08/19 06:59:06;;;;;;;4.43;3.65;;;23.80;63.10;;;;;;4540923;31;20076;-65
2022/08/19 07:01:37;;;;;;;5.63;3.70;;;23.80;63.30;;;;;;4538808;31;20618;-66
2022/08/19 07:04:08;;;;;;;4.95;3.83;;;23.90;63.30;;;;;;4537536;31;20076;-66
2022/08/19 07:06:36;;;;;;;4.75;3.25;;;23.90;63.60;;;;;;4537995;31;20076;-67
2022/08/19 07:09:04;;;;;;;4.57;3.58;;;23.90;63.70;;;;;;4538752;31;20088;-65
2022/08/19 07:11:32;;;;;;;5.35;3.95;;;23.90;63.90;;;;;;4534814;31;20678;-65
2022/08/19 07:13:59;;;;;;;4.43;3.30;;;23.90;64.10;;;;;;4537013;31;20088;-66
2022/08/19 07:16:27;;;;;;;4.88;3.28;;;23.90;64.00;;;;;;4534098;31;20140;-66
2022/08/19 07:18:54;;;;;;;5.45;2.92;;;24.00;64.10;;;;;;4528262;31;20072;-65
2022/08/19 07:21:27;;;;;;;7.05;2.88;;;23.90;64.10;;;;;;4529899;31;20064;-66
2022/08/19 07:23:55;;;;;;;5.13;3.00;;;24.00;64.20;;;;;;4538492;31;20072;-66
2022/08/19 07:26:30;;;;;;;4.85;3.08;;;24.00;64.10;;;;;;4525379;31;20060;-65
2022/08/19 07:28:57;;;;;;;5.50;3.50;;;24.00;64.30;;;;;;4533743;31;20663;-66
2022/08/19 07:31:26;;;;;;;4.55;3.30;;;24.00;64.40;;;;;;4535903;31;20199;-66
2022/08/19 07:33:55;;;;;;;4.93;3.10;;;24.10;64.50;;;;;;4531726;31;20084;-66
2022/08/19 07:36:24;;;;;;;7.53;2.90;;;24.10;64.40;;;;;;4535523;31;20087;-66
2022/08/19 07:38:53;;;;;;;6.30;3.17;;;24.00;64.50;;;;;;4538392;31;20501;-67
2022/08/19 07:41:22;;;;;;;7.78;2.90;;;24.10;64.60;;;;;;4539367;31;20514;-66
2022/08/19 07:43:49;;;;;;;6.57;3.20;;;24.10;64.50;;;;;;4537151;31;20585;-66
2022/08/19 07:46:16;;;;;;;5.43;3.22;;;24.20;64.70;;;;;;4530810;31;20065;-66
2022/08/19 07:48:46;;;;;;;5.55;2.67;;;24.20;64.70;;;;;;4524248;31;20553;-66
2022/08/19 07:51:15;;;;;;;4.75;3.25;;;24.20;64.80;;;;;;4534966;31;20521;-67
2022/08/19 07:53:44;;;;;;;5.00;3.00;;;24.20;64.70;;;;;;4537623;31;20079;-69
2022/08/19 07:56:12;;;;;;;4.70;3.10;;;24.20;64.60;;;;;;4537216;31;20091;-66
2022/08/19 07:58:41;;;;;;;6.25;3.15;;;24.20;64.70;;;;;;4538336;31;20517;-66
2022/08/19 08:01:09;;;;;;;7.63;3.63;;;24.30;64.70;;;;;;4534427;31;20064;-66
2022/08/19 08:09:20;;;;;;;5.90;3.15;;;24.30;64.60;;;;;;4534812;31;20175;-65
2022/08/19 08:11:53;;;;;;;6.57;2.67;;;24.30;64.90;;;;;;4527413;31;20143;-68
2022/08/19 08:14:24;;;;;;;4.68;2.53;;;24.30;64.80;;;;;;4529783;31;20130;-66
2022/08/19 08:16:51;;;;;;;5.82;2.75;;;24.30;64.60;;;;;;4527905;31;20525;-67
2022/08/19 08:19:22;;;;;;;4.28;2.42;;;24.30;64.50;;;;;;4527650;31;20092;-75
2022/08/19 08:21:49;;;;;;;5.45;2.78;;;24.40;64.80;;;;;;4528106;31;20133;-66
2022/08/19 08:24:16;;;;;;;2.60;2.40;;;24.40;64.70;;;;;;4535592;31;20098;-67
2022/08/19 08:26:43;;;;;;;8.07;2.92;;;24.40;64.80;;;;;;4538987;31;20079;-67
2022/08/19 08:29:12;;;;;;;4.90;3.42;;;24.40;64.80;;;;;;4539680;31;20218;-66
2022/08/19 08:31:40;;;;;;;5.28;2.40;;;24.40;64.90;;;;;;4539469;31;20146;-66
2022/08/19 08:34:06;;;;;;;8.32;3.15;;;24.40;65.00;;;;;;4539652;31;20140;-67
2022/08/19 08:36:33;;;;;;;5.45;3.53;;;24.40;64.90;;;;;;4539627;31;20083;-66
2022/08/19 08:39:00;;;;;;;6.65;2.70;;;24.40;64.70;;;;;;4539394;31;20072;-70
2022/08/19 08:41:49;;;;;;;3.80;2.40;;;24.40;64.80;;;;;;4539454;31;20112;-67
2022/08/19 08:44:22;;;;;;;4.50;3.08;;;24.40;64.50;;;;;;4528465;31;20083;-67
2022/08/19 08:47:01;;;;;;;5.45;2.83;;;24.40;64.50;;;;;;4539491;31;20578;-67
2022/08/19 08:49:36;;;;;;;3.63;2.38;;;24.50;64.60;;;;;;4529173;31;20523;-67
2022/08/19 08:52:15;;;;;;;3.92;2.40;;;24.50;64.50;;;;;;4539288;31;20067;-68
2022/08/19 08:54:48;;;;;;;7.20;2.65;;;24.50;64.40;;;;;;4525080;31;20234;-66
2022/08/19 08:57:34;;;;;;;5.63;2.50;;;24.50;64.40;;;;;;4539359;31;20090;-67
2022/08/19 09:00:06;;;;;;;6.93;2.40;;;24.50;64.30;;;;;;4539366;31;20068;-67
2022/08/19 09:02:32;;;;;;;4.20;2.67;;;24.50;64.30;;;;;;4539083;31;20173;-67
2022/08/19 09:04:58;;;;;;;5.72;2.47;;;24.50;64.20;;;;;;4539551;31;20164;-66
2022/08/19 09:07:44;;;;;;;7.18;2.40;;;24.50;64.20;;;;;;4536985;31;20163;-67
2022/08/19 09:10:17;;;;;;;4.80;2.13;;;24.50;64.00;;;;;;4538361;31;20127;-67
2022/08/19 09:13:25;;;;;;;4.70;3.00;;;24.50;64.10;;;;;;4538445;31;20154;-67
2022/08/19 09:16:20;;;;;;;4.05;2.72;;;24.50;63.90;;;;;;4518958;31;20398;-67
2022/08/19 09:18:53;;;;;;;4.10;2.75;;;24.50;63.90;;;;;;4536587;31;20484;-66
2022/08/19 09:21:22;;;;;;;3.87;2.40;;;24.50;63.90;;;;;;4536085;31;20497;-66
2022/08/19 09:23:49;;;;;;;4.47;2.97;;;24.50;64.10;;;;;;4537559;31;20169;-66
2022/08/19 09:26:22;;;;;;;5.18;3.08;;;24.60;64.00;;;;;;4524142;31;20169;-66
2022/08/19 09:28:52;;;;;;;8.02;3.40;;;24.60;63.90;;;;;;4535393;31;20075;-66
2022/08/19 09:31:27;;;;;;;4.85;3.10;;;24.60;64.00;;;;;;4537322;31;20421;-66
2022/08/19 09:33:56;;;;;;;4.15;3.38;;;24.60;63.90;;;;;;4536673;31;20499;-66
2022/08/19 09:36:24;;;;;;;5.05;3.30;;;24.60;63.80;;;;;;4524426;31;20090;-66
2022/08/19 09:38:51;;;;;;;4.13;3.45;;;24.60;64.10;;;;;;4540188;31;20086;-66
2022/08/19 09:41:20;;;;;;;4.57;2.85;;;24.60;63.60;;;;;;4539532;31;20156;-67
2022/08/19 09:43:55;;;;;;;5.18;2.83;;;24.60;63.80;;;;;;4537714;31;20099;-67
2022/08/19 09:46:23;;;;;;;4.80;3.58;;;24.60;63.80;;;;;;4540044;31;20094;-67
2022/08/19 09:48:51;;;;;;;7.88;5.32;;;24.60;63.90;;;;;;4539038;31;20160;-66
2022/08/19 09:51:24;;;;;;;6.75;4.00;;;24.60;63.90;;;;;;4527210;31;20068;-66
2022/08/19 09:53:53;;;;;;;4.90;4.50;;;24.60;63.90;;;;;;4540639;31;20198;-67
2022/08/19 09:56:21;;;;;;;4.50;4.10;;;24.60;63.70;;;;;;4541336;31;20091;-67
2022/08/19 09:58:47;;;;;;;6.28;4.95;;;24.70;63.80;;;;;;4539009;31;20416;-70
2022/08/19 10:01:23;;;;;;;6.47;4.65;;;24.70;63.70;;;;;;4538028;31;20163;-67
2022/08/19 10:03:53;;;;;;;5.30;4.80;;;24.70;63.70;;;;;;4540019;31;20527;-67
2022/08/19 10:06:20;;;;;;;5.13;4.25;;;24.70;63.70;;;;;;4539106;31;20068;-67
2022/08/19 10:08:52;;;;;;;6.97;5.10;;;24.70;63.60;;;;;;4527683;31;20079;-67
2022/08/19 10:11:20;;;;;;;5.80;5.25;;;24.70;63.60;;;;;;4540182;31;20088;-67
2022/08/19 10:13:48;;;;;;;6.03;4.93;;;24.70;63.60;;;;;;4513513;31;20137;-67
2022/08/19 10:16:21;;;;;;;5.25;4.75;;;24.70;63.60;;;;;;4537067;31;20072;-67
2022/08/19 10:18:49;;;;;;;6.97;6.05;;;24.70;63.50;;;;;;4539099;31;20103;-67
2022/08/19 10:21:22;;;;;;;6.47;4.95;;;24.70;63.30;;;;;;4537772;31;20080;-66
2022/08/19 10:23:51;;;;;;;5.72;5.07;;;24.80;63.30;;;;;;4526471;31;20249;-66
2022/08/19 10:26:21;;;;;;;6.47;5.45;;;24.80;63.40;;;;;;4540894;31;20099;-67
2022/08/19 10:28:47;;;;;;;6.00;4.80;;;24.70;63.20;;;;;;4536984;31;20371;-68
2022/08/19 10:31:17;;;;;;;5.25;4.63;;;24.80;63.30;;;;;;4539435;31;20071;-67
2022/08/19 10:33:43;;;;;;;7.05;4.65;;;24.80;63.30;;;;;;4538307;31;20134;-71
2022/08/19 10:36:17;;;;;;;6.65;4.82;;;24.80;63.40;;;;;;4539069;31;20076;-67
2022/08/19 10:38:45;;;;;;;;;;;24.80;63.40;;;;;;4535880;31;20140;-68
2022/08/19 10:41:17;;;;;;;5.55;4.93;;;24.80;63.20;;;;;;4536002;31;20034;-66
2022/08/19 10:43:44;;;;;;;4.93;4.43;;;24.80;63.20;;;;;;4524871;31;20205;-65
2022/08/19 10:46:13;;;;;;;8.45;5.55;;;24.80;63.30;;;;;;4535282;31;20276;-67
2022/08/19 10:48:40;;;;;;;6.80;5.82;;;24.80;63.40;;;;;;4541192;31;20067;-67
2022/08/19 10:53:51;;;;;;;10.57;5.25;;;24.80;63.40;;;;;;4529029;31;20086;-67
2022/08/19 10:59:03;;;;;;;7.00;6.32;;;24.80;63.80;;;;;;4540791;31;20072;-63
2022/08/19 11:01:32;;;;;;;7.72;5.20;;;24.80;63.90;;;;;;4540391;31;20092;-62
2022/08/19 11:03:59;;;;;;;6.40;5.00;;;24.80;63.80;;;;;;4540014;31;20064;-64
2022/08/19 11:06:25;;;;;;;7.85;6.72;;;24.80;63.70;;;;;;4540290;31;20210;-63
2022/08/19 11:08:55;;;;;;;6.47;5.57;;;24.90;63.70;;;;;;4539541;31;20064;-63
2022/08/19 11:11:22;;;;;;;5.70;5.10;;;24.90;63.60;;;;;;4536898;31;20088;-63
2022/08/19 11:13:49;;;;;;;7.47;6.65;;;24.90;63.50;;;;;;4538538;31;20060;-63
2022/08/19 11:16:18;;;;;;;6.68;5.18;;;24.90;63.10;;;;;;4536239;31;20146;-63
2022/08/19 11:18:48;;;;;;;6.78;5.57;;;24.90;63.00;;;;;;4525966;31;20072;-63
2022/08/19 11:21:26;;;;;;;8.52;6.00;;;24.90;63.00;;;;;;4536791;31;20225;-63
2022/08/19 11:23:55;;;;;;;6.72;5.40;;;24.90;62.60;;;;;;4538614;31;20076;-63
2022/08/19 11:26:23;;;;;;;6.72;5.90;;;25.00;62.60;;;;;;4540403;31;20160;-63
2022/08/19 11:28:54;;;;;;;6.57;5.13;;;25.00;63.00;;;;;;4540362;31;20417;-65
2022/08/19 11:31:23;;;;;;;6.30;5.03;;;25.00;63.20;;;;;;4526094;31;20139;-66
2022/08/19 11:33:53;;;;;;;5.60;5.10;;;25.00;63.10;;;;;;4540297;31;20072;-65
2022/08/19 11:36:20;;;;;;;6.63;5.40;;;25.00;63.00;;;;;;4540456;31;20157;-66
2022/08/19 11:38:48;;;;;;;7.63;5.95;;;25.00;63.20;;;;;;4523402;31;20269;-66
2022/08/19 11:43:44;;;;;;;7.07;6.38;;;25.10;63.00;;;;;;4550190;26;20149;-73
2022/08/19 11:46:12;;;;;;;8.02;6.38;;;25.20;62.90;;;;;;4461504;32;20106;-73
2022/08/19 11:48:40;;;;;;;7.72;6.07;;;25.20;62.70;;;;;;4444331;32;20141;-72
2022/08/19 11:51:21;;;;;;;9.57;6.40;;;25.30;62.40;;;;;;4440981;32;20084;-84
2022/08/19 11:53:50;;;;;;;7.20;6.30;;;25.30;62.00;;;;;;4452365;32;20222;-84
2022/08/19 11:56:18;;;;;;;7.65;5.40;;;25.40;61.90;;;;;;4466976;32;20169;-84
2022/08/19 11:58:44;;;;;;;6.97;5.90;;;25.40;61.60;;;;;;4452041;32;20139;-83
2022/08/19 12:01:16;;;;;;;6.53;5.70;;;25.40;61.30;;;;;;4466081;32;20191;-80
2022/08/19 12:03:43;;;;;;;9.02;5.65;;;25.50;61.20;;;;;;4467572;32;20169;-84
2022/08/19 12:06:13;;;;;;;6.07;5.43;;;25.50;60.90;;;;;;4466712;32;20132;-84
2022/08/19 12:08:40;;;;;;;6.82;5.85;;;25.50;60.70;;;;;;4466684;32;20147;-80
2022/08/19 12:11:10;;;;;;;6.72;6.03;;;25.50;60.80;;;;;;4464034;32;20651;-81
2022/08/19 12:13:37;;;;;;;6.57;5.97;;;25.50;60.80;;;;;;4467146;32;20200;-81
2022/08/19 12:16:19;;;;;;;8.85;6.10;;;25.50;60.90;;;;;;4465819;32;20156;-82
2022/08/19 12:18:46;;;;;;;7.30;5.53;;;25.50;61.10;;;;;;4466016;32;20125;-79
2022/08/19 12:21:18;;;;;;;6.45;5.85;;;25.40;61.20;;;;;;4466554;32;20148;-81
2022/08/19 12:23:45;;;;;;;7.30;6.25;;;25.40;61.30;;;;;;4465996;32;20121;-82
2022/08/19 12:26:11;;;;;;;7.18;6.47;;;25.40;61.20;;;;;;4466978;32;20173;-80
2022/08/19 12:28:38;;;;;;;7.35;6.05;;;25.40;61.20;;;;;;4451555;32;20287;-80
2022/08/19 12:31:04;;;;;;;6.63;5.40;;;25.40;61.20;;;;;;4466946;32;20117;-80
2022/08/19 12:33:31;;;;;;;14.52;6.10;;;25.40;61.30;;;;;;4465468;32;20149;-79
2022/08/19 12:36:03;;;;;;;7.68;5.68;;;25.40;61.40;;;;;;4452748;32;20207;-81
2022/08/19 12:38:29;;;;;;;6.25;5.65;;;25.40;61.40;;;;;;4466946;32;20081;-79
2022/08/19 12:40:55;;;;;;;6.43;5.82;;;25.40;61.40;;;;;;4463559;32;20203;-80
2022/08/19 12:43:21;;;;;;;7.72;6.68;;;25.40;61.50;;;;;;4450076;32;20155;-80
2022/08/19 12:45:47;;;;;;;6.63;5.65;;;25.40;61.60;;;;;;4448928;32;20467;-79
2022/08/19 12:48:18;;;;;;;7.53;6.28;;;25.40;61.60;;;;;;4466183;32;20235;-80
2022/08/19 12:50:45;;;;;;;9.38;6.60;;;25.40;61.70;;;;;;4464241;32;20133;-80
2022/08/19 12:53:12;;;;;;;6.70;6.00;;;25.40;61.80;;;;;;4465771;32;20204;-81
2022/08/19 12:55:37;;;;;;;7.93;6.78;;;25.40;61.90;;;;;;4465779;32;20096;-83
2022/08/19 12:58:05;;;;;;;9.55;7.22;;;25.40;62.20;;;;;;4464702;32;20133;-81
2022/08/19 13:00:32;;;;;;;8.60;7.28;;;25.40;62.30;;;;;;4465795;32;20169;-81
2022/08/19 13:02:59;;;;;;;10.77;7.00;;;25.30;62.60;;;;;;4464350;32;20129;-81
2022/08/19 13:05:28;;;;;;;8.00;6.78;;;25.30;62.70;;;;;;4466282;32;20140;-81
2022/08/19 13:07:57;;;;;;;12.10;7.35;;;25.30;62.90;;;;;;4464630;32;20147;-80
2022/08/19 13:10:27;;;;;;;11.48;7.97;;;25.30;63.20;;;;;;4465973;32;20125;-79
2022/08/19 13:12:54;;;;;;;10.90;8.60;;;25.30;63.30;;;;;;4466343;32;20078;-78
2022/08/19 13:15:22;;;;;;;11.52;7.60;;;25.20;63.50;;;;;;4468157;32;20439;-76
2022/08/19 13:17:49;;;;;;;11.55;7.68;;;25.20;63.90;;;;;;4461716;32;20676;-77
2022/08/19 13:20:21;;;;;;;9.80;6.20;;;25.20;64.10;;;;;;4467357;32;20167;-81
2022/08/19 13:22:49;;;;;;;10.48;6.93;;;25.20;64.30;;;;;;4469462;32;20157;-80